Hauptseite
METAR-TAF:

METAR-TAF

Flughäfen :

Fliegerhorst Wunstorf

Wunstorf, Deutschland

Breite: 52-27N, Länge: 009-26E, Höhe: 57 m

Beobachtung

Neuester Wetterbericht von vor 23 Minuten, um 02:20 UTC
Wind 9 kt aus West/Nordwest
Temperatur 17°C
Luftfeuchtigkeit 88%
Luftdruck 1016 hPa
Sichtweite 10 km oder mehr

METAR: ETNW 180220Z AUTO 29009KT 9999 // ////// 17/15 Q1016 ///

Zeit: 04:43 (02:43 UTC)

Prognose

Neuester Wetterbericht von vor 4 Stunden und 41 Minuten, um 22:02 UTC
Gültige Prognose vom 17 um 23 UTC bis 18 um 23 UTC
Wind 8 kt aus West/Nordwest
Sichtweite 10 km oder mehr
Leicht bewölkt in der Höhe von 10000 ft
Aufgelockert bewölkt in der Höhe von 30000 ft
Übergehend zu
vom 18 um 07 UTC bis 18 um 09 UTC
Wind 12 kt aus Nordwest
Sichtweite 10 km oder mehr
Aufgelockert bewölkt in der Höhe von 2500 ft

TAF: ETNW 172202Z 1723/1823 29008KT 9999 NSW FEW100 SCT300 BECMG 1807/1809 31012KT 9999 NSW SCT025 BY ETGL

Wetterbeobachtungen und Prognosen von mehr als 4000 Flughäfen (METAR und TAF Bericht).

Die verfügbaren Stationen werden durch gelbe und rote Markierungen auf der Karte dargestellt.

Führen Sie die Maus auf sie, um den Namen der Station zu sehen.

Darauf klicken, um die Beobachtung von Wetterbeobachtungen und Prognosen zu sehen.

Um die Karte zu ändern : klicken Sie auf den grünen Tasten mit einem schwarzen Kreuz Zum Vergrößern, auf den grünen Button mit einem Gedankenstrich zu verkleinern, oder auf die grünen Pfeile für benachbarte Karten.


METAR-TAF: